Time,TemperatureF,DewpointF,PressureIn,WindDirection,WindDirectionDegrees,WindSpeedMPH,WindSpeedGustMPH,Humidity,HourlyPrecipIn,Conditions,Clouds,dailyrainin,SolarRadiationWatts/m^2,SoftwareType,DateUTC
2013-11-18 00:01:00,67.3,66.7,30.01,ESE,104,0.0,0.0,98,0.00,,,0.00,0.0,meteohub,2013-11-18 05:01:00,
2013-11-18 00:02:00,67.3,66.7,30.01,ESE,104,0.0,0.0,98,0.00,,,0.00,0.0,meteohub,2013-11-18 05:02:00,
2013-11-18 00:04:00,67.1,66.6,30.01,ESE,104,0.0,0.0,98,0.00,,,0.00,0.0,meteohub,2013-11-18 05:04:00,
2013-11-18 00:07:00,67.3,66.7,30.01,ESE,104,0.0,0.0,98,0.00,,,0.00,0.0,meteohub,2013-11-18 05:07:00,
2013-11-18 00:12:00,67.5,66.9,30.01,ESE,104,0.0,1.0,98,0.00,,,0.00,0.0,meteohub,2013-11-18 05:12:00,
2013-11-18 00:17:00,67.5,66.9,30.01,ESE,104,0.0,1.0,98,0.00,,,0.00,0.0,meteohub,2013-11-18 05:17:00,
2013-11-18 00:22:00,67.3,66.7,30.01,ESE,104,0.0,1.0,98,0.00,,,0.00,0.0,meteohub,2013-11-18 05:22:00,
2013-11-18 00:29:00,67.3,66.7,30.01,ESE,104,0.0,1.0,98,0.00,,,0.00,0.0,meteohub,2013-11-18 05:29:00,
2013-11-18 00:35:00,67.5,66.9,30.01,ESE,104,0.0,1.0,98,0.00,,,0.00,0.0,meteohub,2013-11-18 05:35:00,
2013-11-18 00:41:00,67.5,66.9,30.01,ESE,104,0.0,1.0,98,0.00,,,0.00,0.0,meteohub,2013-11-18 05:41:00,
2013-11-18 00:47:00,67.5,66.9,30.01,ESE,104,0.0,1.0,98,0.00,,,0.00,0.0,meteohub,2013-11-18 05:47:00,
2013-11-18 00:54:00,67.5,66.9,30.00,ESE,104,0.0,0.0,98,0.00,,,0.00,0.0,meteohub,2013-11-18 05:54:00,
2013-11-18 01:00:00,67.5,66.9,30.00,ESE,104,0.0,0.0,98,0.00,,,0.00,0.0,meteohub,2013-11-18 06:00:00,
2013-11-18 01:06:00,67.3,66.7,29.99,ESE,104,0.0,0.0,98,0.00,,,0.00,0.0,meteohub,2013-11-18 06:06:00,
2013-11-18 01:12:00,67.3,66.7,29.99,ESE,104,0.0,1.0,98,0.00,,,0.00,0.0,meteohub,2013-11-18 06:12:00,
2013-11-18 01:17:00,67.5,66.9,29.99,ESE,104,0.0,1.0,98,0.00,,,0.00,0.0,meteohub,2013-11-18 06:17:00,
2013-11-18 01:22:00,67.6,67.1,29.99,ESE,104,0.0,1.0,98,0.00,,,0.00,0.0,meteohub,2013-11-18 06:22:00,
2013-11-18 01:27:00,68.0,67.5,29.99,SSW,201,1.0,1.0,98,0.00,,,0.00,0.0,meteohub,2013-11-18 06:27:00,
2013-11-18 01:34:00,68.2,67.6,29.98,SSE,158,0.0,2.0,98,0.00,,,0.00,0.0,meteohub,2013-11-18 06:34:00,
2013-11-18 01:40:00,68.2,67.6,29.98,East,96,1.0,2.0,98,0.00,,,0.00,0.0,meteohub,2013-11-18 06:40:00,
2013-11-18 01:46:00,68.4,67.8,29.98,West,260,0.0,2.0,98,0.00,,,0.00,0.0,meteohub,2013-11-18 06:46:00,
2013-11-18 01:52:00,68.4,67.8,29.98,West,260,1.0,2.0,98,0.00,,,0.00,0.0,meteohub,2013-11-18 06:52:00,
2013-11-18 01:59:00,68.9,68.4,29.98,WNW,301,1.0,2.0,98,0.00,,,0.00,0.0,meteohub,2013-11-18 06:59:00,
2013-11-18 02:05:00,69.3,68.7,29.97,SW,236,0.0,2.0,98,0.00,,,0.00,0.0,meteohub,2013-11-18 07:05:00,
2013-11-18 02:11:00,69.4,68.9,29.98,WSW,257,0.0,2.0,98,0.00,,,0.00,0.0,meteohub,2013-11-18 07:11:00,
2013-11-18 02:17:00,69.6,69.1,29.98,West,276,1.0,4.0,98,0.00,,,0.00,0.0,meteohub,2013-11-18 07:17:00,
2013-11-18 02:22:00,69.6,69.1,29.97,West,267,1.0,4.0,98,0.00,,,0.00,0.0,meteohub,2013-11-18 07:22:00,
2013-11-18 02:27:00,69.6,69.1,29.97,WSW,251,1.0,3.0,98,0.00,,,0.00,0.0,meteohub,2013-11-18 07:27:00,
2013-11-18 02:32:00,69.8,69.3,29.98,West,269,2.0,3.0,98,0.00,,,0.00,0.0,meteohub,2013-11-18 07:32:00,
2013-11-18 02:39:00,69.6,69.1,29.98,West,269,0.0,4.0,98,0.00,,,0.00,0.0,meteohub,2013-11-18 07:39:00,
2013-11-18 02:45:00,69.8,69.3,29.97,West,259,1.0,4.0,98,0.00,,,0.00,0.0,meteohub,2013-11-18 07:45:00,
2013-11-18 02:51:00,69.8,69.3,29.97,West,265,1.0,3.0,98,0.00,,,0.00,0.0,meteohub,2013-11-18 07:51:00,
2013-11-18 02:57:00,69.8,69.3,29.97,SW,236,1.0,3.0,98,0.00,,,0.00,0.0,meteohub,2013-11-18 07:57:00,
2013-11-18 03:02:00,70.0,69.4,29.97,West,259,0.0,4.0,98,0.00,,,0.00,0.0,meteohub,2013-11-18 08:02:00,
2013-11-18 03:07:00,70.0,69.4,29.97,WSW,254,0.0,4.0,98,0.00,,,0.00,0.0,meteohub,2013-11-18 08:07:00,
2013-11-18 03:12:00,70.0,69.4,29.96,SW,221,1.0,4.0,98,0.00,,,0.00,0.0,meteohub,2013-11-18 08:12:00,
2013-11-18 03:17:00,70.0,69.4,29.96,SW,221,0.0,4.0,98,0.00,,,0.00,0.0,meteohub,2013-11-18 08:17:00,
2013-11-18 03:22:00,70.0,69.4,29.96,SW,221,0.0,2.0,98,0.00,,,0.00,0.0,meteohub,2013-11-18 08:22:00,
2013-11-18 03:27:00,70.0,69.4,29.96,West,260,1.0,2.0,98,0.00,,,0.00,0.0,meteohub,2013-11-18 08:27:00,
2013-11-18 03:32:00,70.0,69.4,29.96,West,268,2.0,3.0,98,0.00,,,0.00,0.0,meteohub,2013-11-18 08:32:00,
2013-11-18 03:37:00,70.0,69.4,29.96,WSW,254,0.0,3.0,98,0.00,,,0.00,0.0,meteohub,2013-11-18 08:37:00,
2013-11-18 03:42:00,70.0,69.4,29.96,WSW,254,0.0,3.0,98,0.00,,,0.00,0.0,meteohub,2013-11-18 08:42:00,
2013-11-18 03:47:00,70.0,69.4,29.96,SW,228,2.0,3.0,98,0.00,,,0.00,0.0,meteohub,2013-11-18 08:47:00,
2013-11-18 03:52:00,70.2,69.6,29.96,WSW,258,0.0,2.0,98,0.00,,,0.00,0.0,meteohub,2013-11-18 08:52:00,
2013-11-18 03:57:00,70.2,69.6,29.96,WSW,258,1.0,2.0,98,0.00,,,0.00,0.0,meteohub,2013-11-18 08:57:00,
2013-11-18 04:02:00,70.2,69.6,29.96,WSW,258,0.0,2.0,98,0.00,,,0.00,0.0,meteohub,2013-11-18 09:02:00,
2013-11-18 04:07:00,70.2,69.6,29.96,WSW,258,1.0,2.0,98,0.00,,,0.00,0.0,meteohub,2013-11-18 09:07:00,
2013-11-18 04:12:00,70.2,69.6,29.95,WSW,243,0.0,3.0,98,0.00,,,0.00,0.0,meteohub,2013-11-18 09:12:00,
2013-11-18 04:17:00,70.2,69.6,29.95,West,259,1.0,3.0,98,0.00,,,0.00,0.0,meteohub,2013-11-18 09:17:00,
2013-11-18 04:22:00,70.2,69.6,29.95,SSW,209,0.0,3.0,98,0.00,,,0.00,0.0,meteohub,2013-11-18 09:22:00,
2013-11-18 04:27:00,70.2,69.6,29.95,West,265,1.0,3.0,98,0.00,,,0.00,0.0,meteohub,2013-11-18 09:27:00,
2013-11-18 04:32:00,70.2,69.6,29.94,WSW,250,1.0,3.0,98,0.00,,,0.00,0.0,meteohub,2013-11-18 09:32:00,
2013-11-18 04:37:00,70.2,69.6,29.94,WSW,250,0.0,3.0,98,0.00,,,0.00,0.0,meteohub,2013-11-18 09:37:00,
2013-11-18 04:42:00,70.0,69.4,29.95,WSW,250,0.0,2.0,98,0.00,,,0.00,0.0,meteohub,2013-11-18 09:42:00,
2013-11-18 04:47:00,70.2,69.6,29.95,WSW,246,0.0,2.0,98,0.00,,,0.00,0.0,meteohub,2013-11-18 09:47:00,
2013-11-18 04:52:00,70.2,69.6,29.95,SSW,205,0.0,2.0,98,0.00,,,0.00,0.0,meteohub,2013-11-18 09:52:00,
2013-11-18 04:57:00,70.2,69.6,29.95,WSW,251,0.0,2.0,98,0.00,,,0.00,0.0,meteohub,2013-11-18 09:57:00,
2013-11-18 05:02:00,70.2,69.6,29.95,WSW,248,0.0,2.0,98,0.00,,,0.00,0.0,meteohub,2013-11-18 10:02:00,
2013-11-18 05:07:00,70.2,69.6,29.95,WSW,252,2.0,2.0,98,0.00,,,0.00,0.0,meteohub,2013-11-18 10:07:00,
2013-11-18 05:12:00,70.2,69.6,29.95,WSW,252,0.0,3.0,98,0.00,,,0.00,0.0,meteohub,2013-11-18 10:12:00,
2013-11-18 05:17:00,70.2,69.6,29.95,SW,229,0.0,3.0,98,0.00,,,0.00,0.0,meteohub,2013-11-18 10:17:00,
2013-11-18 05:23:00,70.2,69.6,29.94,West,274,1.0,3.0,98,0.00,,,0.00,0.0,meteohub,2013-11-18 10:23:00,
2013-11-18 05:29:00,70.2,69.6,29.94,West,261,0.0,3.0,98,0.00,,,0.00,0.0,meteohub,2013-11-18 10:29:00,
2013-11-18 05:35:00,70.2,69.6,29.94,West,261,0.0,3.0,98,0.00,,,0.00,0.0,meteohub,2013-11-18 10:35:00,
2013-11-18 05:41:00,70.2,69.6,29.94,West,261,1.0,3.0,98,0.00,,,0.00,0.0,meteohub,2013-11-18 10:41:00,
2013-11-18 05:47:00,70.2,69.6,29.95,SSE,161,1.0,3.0,98,0.00,,,0.00,0.0,meteohub,2013-11-18 10:47:00,
2013-11-18 05:52:00,70.2,69.6,29.94,WSW,247,1.0,3.0,98,0.00,,,0.00,0.0,meteohub,2013-11-18 10:52:00,
2013-11-18 05:57:00,70.2,69.6,29.94,WSW,252,2.0,4.0,98,0.00,,,0.00,0.0,meteohub,2013-11-18 10:57:00,
2013-11-18 06:02:00,70.2,69.6,29.94,WSW,250,0.0,4.0,98,0.00,,,0.00,0.0,meteohub,2013-11-18 11:02:00,
2013-11-18 06:07:00,70.2,69.6,29.94,WSW,250,0.0,4.0,98,0.00,,,0.00,0.0,meteohub,2013-11-18 11:07:00,
2013-11-18 06:12:00,70.2,69.6,29.94,WSW,255,2.0,4.0,98,0.00,,,0.00,0.0,meteohub,2013-11-18 11:12:00,
2013-11-18 06:17:00,70.2,69.6,29.94,WSW,255,0.0,2.0,98,0.00,,,0.00,0.0,meteohub,2013-11-18 11:17:00,
2013-11-18 06:22:00,70.2,69.6,29.94,WSW,256,2.0,2.0,98,0.00,,,0.00,0.0,meteohub,2013-11-18 11:22:00,
2013-11-18 06:27:00,70.2,69.6,29.94,West,260,0.0,2.0,98,0.00,,,0.00,0.0,meteohub,2013-11-18 11:27:00,
2013-11-18 06:32:00,70.2,69.6,29.94,West,260,0.0,2.0,98,0.00,,,0.00,0.0,meteohub,2013-11-18 11:32:00,
2013-11-18 06:37:00,70.2,69.6,29.94,West,260,0.0,3.0,98,0.00,,,0.00,0.0,meteohub,2013-11-18 11:37:00,
2013-11-18 06:42:00,70.2,69.6,29.94,West,260,0.0,3.0,98,0.00,,,0.00,0.0,meteohub,2013-11-18 11:42:00,
2013-11-18 06:47:00,70.2,69.6,29.94,WSW,250,0.0,3.0,98,0.00,,,0.00,0.0,meteohub,2013-11-18 11:47:00,
2013-11-18 06:53:00,70.2,69.6,29.94,WSW,250,0.0,3.0,98,0.00,,,0.00,0.0,meteohub,2013-11-18 11:53:00,
2013-11-18 06:59:00,70.2,69.6,29.94,WSW,253,1.0,2.0,98,0.00,,,0.00,0.0,meteohub,2013-11-18 11:59:00,
2013-11-18 07:05:00,70.3,69.8,29.94,West,262,0.0,2.0,98,0.00,,,0.00,0.0,meteohub,2013-11-18 12:05:00,
2013-11-18 07:11:00,70.3,69.8,29.95,West,262,2.0,2.0,98,0.00,,,0.00,5.0,meteohub,2013-11-18 12:11:00,
2013-11-18 07:17:00,70.3,69.8,29.95,West,271,1.0,3.0,98,0.00,,,0.00,7.0,meteohub,2013-11-18 12:17:00,
2013-11-18 07:24:00,70.3,69.8,29.96,WSW,257,1.0,3.0,98,0.00,,,0.00,16.0,meteohub,2013-11-18 12:24:00,
2013-11-18 07:30:00,70.5,70.0,29.96,West,261,0.0,4.0,98,0.00,,,0.00,11.0,meteohub,2013-11-18 12:30:00,
2013-11-18 07:36:00,70.5,70.0,29.96,West,261,1.0,4.0,98,0.00,,,0.00,11.0,meteohub,2013-11-18 12:36:00,
2013-11-18 07:42:00,70.5,70.0,29.96,West,265,0.0,4.0,98,0.00,,,0.00,7.0,meteohub,2013-11-18 12:42:00,
2013-11-18 07:47:00,70.5,70.0,29.96,West,266,1.0,4.0,98,0.00,,,0.00,19.0,meteohub,2013-11-18 12:47:00,
2013-11-18 07:52:00,70.5,70.0,29.96,West,266,1.0,3.0,98,0.00,,,0.00,28.0,meteohub,2013-11-18 12:52:00,
2013-11-18 07:58:00,70.7,70.2,29.96,West,266,0.0,3.0,98,0.00,,,0.00,33.0,meteohub,2013-11-18 12:58:00,
2013-11-18 08:04:00,70.9,70.3,29.96,WSW,254,2.0,2.0,98,0.00,,,0.00,44.0,meteohub,2013-11-18 13:04:00,
2013-11-18 08:10:00,70.9,70.3,29.96,West,266,1.0,2.0,98,0.00,,,0.00,51.0,meteohub,2013-11-18 13:10:00,
2013-11-18 08:16:00,71.1,70.5,29.96,West,277,1.0,2.0,98,0.00,,,0.00,47.0,meteohub,2013-11-18 13:16:00,
2013-11-18 08:22:00,71.1,70.5,29.96,West,261,1.0,4.0,98,0.00,,,0.00,56.0,meteohub,2013-11-18 13:22:00,
2013-11-18 08:27:00,71.2,70.7,29.96,West,263,2.0,4.0,98,0.00,,,0.00,65.0,meteohub,2013-11-18 13:27:00,
2013-11-18 08:32:00,71.2,70.7,29.96,West,261,2.0,4.0,98,0.00,,,0.00,69.0,meteohub,2013-11-18 13:32:00,
2013-11-18 08:38:00,71.4,70.9,29.96,West,262,1.0,4.0,98,0.00,,,0.00,67.0,meteohub,2013-11-18 13:38:00,
2013-11-18 08:44:00,71.4,70.9,29.97,West,276,2.0,4.0,98,0.00,,,0.00,60.0,meteohub,2013-11-18 13:44:00,
2013-11-18 08:50:00,71.8,71.2,29.98,West,266,2.0,4.0,98,0.00,,,0.00,67.0,meteohub,2013-11-18 13:50:00,
2013-11-18 08:57:00,71.8,71.2,29.98,West,275,0.0,4.0,98,0.00,,,0.00,54.0,meteohub,2013-11-18 13:57:00,
2013-11-18 09:02:00,71.8,71.2,29.98,West,271,0.0,5.0,98,0.00,,,0.00,53.0,meteohub,2013-11-18 14:02:00,
2013-11-18 09:07:00,71.8,71.2,29.98,West,265,0.0,5.0,98,0.00,,,0.00,40.0,meteohub,2013-11-18 14:07:00,
2013-11-18 09:12:00,72.0,71.4,29.98,West,264,0.0,5.0,98,0.00,,,0.00,109.0,meteohub,2013-11-18 14:12:00,
2013-11-18 09:18:00,72.3,71.8,29.98,West,281,2.0,5.0,98,0.00,,,0.00,95.0,meteohub,2013-11-18 14:18:00,
2013-11-18 09:24:00,72.5,71.6,29.98,West,261,1.0,5.0,97,0.00,,,0.00,107.0,meteohub,2013-11-18 14:24:00,
2013-11-18 09:31:00,72.5,71.6,29.98,West,265,2.0,5.0,97,0.00,,,0.00,72.0,meteohub,2013-11-18 14:31:00,
2013-11-18 09:37:00,72.5,71.6,29.98,West,276,2.0,3.0,97,0.00,,,0.00,102.0,meteohub,2013-11-18 14:37:00,
2013-11-18 09:42:00,72.7,71.8,29.98,West,272,0.0,3.0,97,0.00,,,0.00,86.0,meteohub,2013-11-18 14:42:00,
2013-11-18 09:47:00,72.9,71.6,29.98,West,272,0.0,3.0,96,0.00,,,0.00,81.0,meteohub,2013-11-18 14:47:00,
2013-11-18 09:52:00,72.9,71.6,29.98,West,271,1.0,4.0,96,0.00,,,0.00,76.0,meteohub,2013-11-18 14:52:00,
2013-11-18 09:59:00,73.0,71.8,29.98,West,269,1.0,4.0,96,0.00,,,0.00,114.0,meteohub,2013-11-18 14:59:00,
2013-11-18 10:05:00,73.0,71.8,29.99,WSW,243,1.0,5.0,96,0.00,,,0.00,146.0,meteohub,2013-11-18 15:05:00,
2013-11-18 10:11:00,73.6,72.1,29.98,West,274,2.0,5.0,95,0.00,,,0.00,104.0,meteohub,2013-11-18 15:11:00,
2013-11-18 10:17:00,73.8,72.3,29.99,West,259,2.0,5.0,95,0.00,,,0.00,134.0,meteohub,2013-11-18 15:17:00,
2013-11-18 10:22:00,73.9,72.1,29.99,West,265,2.0,3.0,94,0.00,,,0.00,134.0,meteohub,2013-11-18 15:22:00,
2013-11-18 10:27:00,74.1,72.3,29.98,WSW,248,1.0,3.0,94,0.00,,,0.00,137.0,meteohub,2013-11-18 15:27:00,
2013-11-18 10:32:00,74.5,72.7,29.98,WNW,290,0.0,3.0,94,0.00,,,0.00,163.0,meteohub,2013-11-18 15:32:00,
2013-11-18 10:37:00,74.7,72.5,29.98,WNW,282,0.0,3.0,93,0.00,,,0.00,127.0,meteohub,2013-11-18 15:37:00,
2013-11-18 10:42:00,74.8,72.7,29.98,SW,233,2.0,3.0,93,0.00,,,0.00,237.0,meteohub,2013-11-18 15:42:00,
2013-11-18 10:47:00,75.4,72.9,29.98,West,263,2.0,3.0,92,0.00,,,0.00,195.0,meteohub,2013-11-18 15:47:00,
2013-11-18 10:52:00,75.6,72.7,29.98,WSW,256,2.0,3.0,91,0.00,,,0.00,183.0,meteohub,2013-11-18 15:52:00,
2013-11-18 10:57:00,75.7,72.9,29.97,SW,233,2.0,3.0,91,0.00,,,0.00,295.0,meteohub,2013-11-18 15:57:00,
2013-11-18 11:02:00,76.1,72.9,29.97,West,268,2.0,5.0,90,0.00,,,0.00,276.0,meteohub,2013-11-18 16:02:00,
2013-11-18 11:07:00,77.2,74.3,29.97,NW,310,0.0,5.0,91,0.00,,,0.00,563.0,meteohub,2013-11-18 16:07:00,
2013-11-18 11:13:00,78.1,73.9,29.97,SW,231,2.0,5.0,87,0.00,,,0.00,599.0,meteohub,2013-11-18 16:13:00,
2013-11-18 11:19:00,78.4,73.2,29.96,WSW,251,2.0,6.0,84,0.00,,,0.00,179.0,meteohub,2013-11-18 16:19:00,
2013-11-18 11:25:00,77.7,73.2,29.96,West,278,2.0,6.0,86,0.00,,,0.00,234.0,meteohub,2013-11-18 16:25:00,
2013-11-18 11:31:00,77.5,73.0,29.96,WSW,247,1.0,6.0,86,0.00,,,0.00,216.0,meteohub,2013-11-18 16:31:00,
2013-11-18 11:37:00,77.7,73.2,29.96,WSW,258,4.0,7.0,86,0.00,,,0.00,209.0,meteohub,2013-11-18 16:37:00,
2013-11-18 11:44:00,77.5,73.0,29.96,West,269,1.0,7.0,86,0.00,,,0.00,142.0,meteohub,2013-11-18 16:44:00,
2013-11-18 11:50:00,77.5,73.0,29.96,West,262,2.0,6.0,86,0.01,,,0.00,220.0,meteohub,2013-11-18 16:50:00,
2013-11-18 11:56:00,78.3,73.8,29.96,West,273,2.0,6.0,86,0.01,,,0.01,174.0,meteohub,2013-11-18 16:56:00,
2013-11-18 12:02:00,78.4,73.2,29.95,West,281,1.0,5.0,84,0.01,,,0.01,223.0,meteohub,2013-11-18 17:02:00,
2013-11-18 12:07:00,78.4,73.2,29.95,West,273,1.0,5.0,84,0.01,,,0.01,195.0,meteohub,2013-11-18 17:07:00,
2013-11-18 12:12:00,78.1,73.2,29.94,West,262,2.0,5.0,85,0.01,,,0.01,139.0,meteohub,2013-11-18 17:12:00,
2013-11-18 12:17:00,77.7,73.2,29.94,West,265,1.0,5.0,86,0.01,,,0.01,146.0,meteohub,2013-11-18 17:17:00,
2013-11-18 12:22:00,77.7,72.9,29.94,West,265,0.0,5.0,85,0.01,,,0.01,229.0,meteohub,2013-11-18 17:22:00,
2013-11-18 12:27:00,78.3,73.8,29.94,WSW,244,2.0,5.0,86,0.01,,,0.01,269.0,meteohub,2013-11-18 17:27:00,
2013-11-18 12:32:00,78.4,73.2,29.94,West,273,3.0,5.0,84,0.01,,,0.01,246.0,meteohub,2013-11-18 17:32:00,
2013-11-18 12:37:00,78.6,73.4,29.94,WNW,294,3.0,5.0,84,0.01,,,0.01,192.0,meteohub,2013-11-18 17:37:00,
2013-11-18 12:42:00,78.4,73.2,29.93,West,266,2.0,6.0,84,0.01,,,0.01,220.0,meteohub,2013-11-18 17:42:00,
2013-11-18 12:47:00,78.6,73.4,29.93,West,272,2.0,6.0,84,0.01,,,0.01,236.0,meteohub,2013-11-18 17:47:00,
2013-11-18 12:52:00,78.8,73.6,29.93,WNW,284,4.0,7.0,84,0.00,,,0.01,221.0,meteohub,2013-11-18 17:52:00,
2013-11-18 12:57:00,78.4,72.9,29.93,WSW,247,4.0,7.0,83,0.00,,,0.01,160.0,meteohub,2013-11-18 17:57:00,
2013-11-18 13:02:00,78.3,73.0,29.92,WNW,288,0.0,7.0,84,0.00,,,0.01,141.0,meteohub,2013-11-18 18:02:00,
2013-11-18 13:07:00,78.1,72.9,29.92,West,264,2.0,7.0,84,0.00,,,0.01,183.0,meteohub,2013-11-18 18:07:00,
2013-11-18 13:12:00,77.9,73.0,29.92,West,277,2.0,7.0,85,0.00,,,0.01,132.0,meteohub,2013-11-18 18:12:00,
2013-11-18 13:17:00,77.5,73.4,29.92,WSW,244,1.0,7.0,87,0.00,,,0.01,158.0,meteohub,2013-11-18 18:17:00,
2013-11-18 13:22:00,77.0,73.2,29.93,West,265,4.0,6.0,88,0.00,,,0.01,153.0,meteohub,2013-11-18 18:22:00,
2013-11-18 13:27:00,76.6,72.9,29.93,West,270,2.0,6.0,88,0.00,,,0.01,86.0,meteohub,2013-11-18 18:27:00,
2013-11-18 13:32:00,76.5,73.0,29.93,WSW,256,1.0,6.0,89,0.00,,,0.01,56.0,meteohub,2013-11-18 18:32:00,
2013-11-18 13:37:00,75.9,72.9,29.93,West,271,2.0,6.0,90,0.00,,,0.01,37.0,meteohub,2013-11-18 18:37:00,
2013-11-18 13:42:00,75.6,73.0,29.93,West,279,2.0,7.0,92,0.00,,,0.01,37.0,meteohub,2013-11-18 18:42:00,
2013-11-18 13:47:00,75.2,73.0,29.93,West,269,2.0,7.0,93,0.00,,,0.01,35.0,meteohub,2013-11-18 18:47:00,
2013-11-18 13:52:00,74.8,73.0,29.93,WSW,252,4.0,6.0,94,0.00,,,0.01,12.0,meteohub,2013-11-18 18:52:00,
2013-11-18 13:57:00,74.5,72.7,29.93,WNW,291,1.0,6.0,94,0.00,,,0.02,12.0,meteohub,2013-11-18 18:57:00,
2013-11-18 14:02:00,73.9,72.5,29.92,West,270,1.0,6.0,95,0.03,,,0.02,16.0,meteohub,2013-11-18 19:02:00,
2013-11-18 14:07:00,72.9,71.1,29.92,West,261,2.0,6.0,94,0.03,,,0.02,18.0,meteohub,2013-11-18 19:07:00,
2013-11-18 14:12:00,72.0,70.2,29.92,West,268,1.0,9.0,94,0.09,,,0.08,30.0,meteohub,2013-11-18 19:12:00,
2013-11-18 14:17:00,71.8,70.3,29.91,West,275,1.0,9.0,95,0.09,,,0.12,46.0,meteohub,2013-11-18 19:17:00,
2013-11-18 14:24:00,71.8,70.5,29.91,West,279,0.0,4.0,96,0.13,,,0.12,65.0,meteohub,2013-11-18 19:24:00,
2013-11-18 14:31:00,71.6,70.3,29.91,West,267,1.0,4.0,96,0.16,,,0.16,83.0,meteohub,2013-11-18 19:31:00,
2013-11-18 14:37:00,71.8,70.5,29.90,West,269,1.0,4.0,96,0.16,,,0.18,100.0,meteohub,2013-11-18 19:37:00,
2013-11-18 14:42:00,71.8,70.9,29.91,WSW,245,1.0,4.0,97,0.18,,,0.18,105.0,meteohub,2013-11-18 19:42:00,
2013-11-18 14:47:00,71.6,70.3,29.91,WSW,242,1.0,4.0,96,0.18,,,0.20,83.0,meteohub,2013-11-18 19:47:00,
2013-11-18 14:52:00,71.8,70.9,29.91,WNW,300,1.0,3.0,97,0.20,,,0.20,76.0,meteohub,2013-11-18 19:52:00,
2013-11-18 14:57:00,71.8,70.9,29.91,WNW,300,1.0,3.0,97,0.20,,,0.22,79.0,meteohub,2013-11-18 19:57:00,
2013-11-18 15:02:00,71.4,70.2,29.91,WSW,255,0.0,3.0,96,0.19,,,0.22,91.0,meteohub,2013-11-18 20:02:00,
2013-11-18 15:08:00,71.4,70.2,29.91,West,266,1.0,3.0,96,0.19,,,0.23,100.0,meteohub,2013-11-18 20:08:00,
2013-11-18 15:14:00,71.4,70.2,29.91,West,271,1.0,3.0,96,0.14,,,0.23,79.0,meteohub,2013-11-18 20:14:00,
2013-11-18 15:20:00,71.4,70.2,29.91,West,265,1.0,3.0,96,0.11,,,0.25,70.0,meteohub,2013-11-18 20:20:00,
2013-11-18 15:26:00,71.4,70.2,29.92,West,265,1.0,3.0,96,0.11,,,0.26,69.0,meteohub,2013-11-18 20:26:00,
2013-11-18 15:32:00,71.4,70.2,29.92,West,265,2.0,3.0,96,0.10,,,0.26,65.0,meteohub,2013-11-18 20:32:00,
2013-11-18 15:39:00,71.4,70.2,29.92,West,263,1.0,3.0,96,0.09,,,0.28,62.0,meteohub,2013-11-18 20:39:00,
2013-11-18 15:45:00,71.6,70.7,29.92,West,265,0.0,4.0,97,0.09,,,0.28,56.0,meteohub,2013-11-18 20:45:00,
2013-11-18 15:51:00,71.6,70.7,29.91,West,265,0.0,3.0,97,0.08,,,0.29,60.0,meteohub,2013-11-18 20:51:00,
2013-11-18 15:57:00,71.6,70.7,29.91,West,279,1.0,3.0,97,0.08,,,0.29,62.0,meteohub,2013-11-18 20:57:00,
2013-11-18 16:02:00,71.8,70.5,29.91,West,266,0.0,3.0,96,0.07,,,0.29,58.0,meteohub,2013-11-18 21:02:00,
2013-11-18 16:07:00,71.6,70.3,29.91,West,266,0.0,3.0,96,0.07,,,0.29,60.0,meteohub,2013-11-18 21:07:00,
2013-11-18 16:12:00,71.8,70.5,29.91,West,266,0.0,3.0,96,0.07,,,0.31,58.0,meteohub,2013-11-18 21:12:00,
2013-11-18 16:17:00,71.8,70.5,29.91,West,266,2.0,3.0,96,0.07,,,0.31,58.0,meteohub,2013-11-18 21:17:00,
2013-11-18 16:22:00,71.8,70.5,29.91,West,269,0.0,3.0,96,0.07,,,0.31,53.0,meteohub,2013-11-18 21:22:00,
2013-11-18 16:27:00,71.6,70.3,29.91,West,269,0.0,3.0,96,0.06,,,0.31,47.0,meteohub,2013-11-18 21:27:00,
2013-11-18 16:32:00,71.6,70.3,29.91,West,269,1.0,3.0,96,0.06,,,0.31,47.0,meteohub,2013-11-18 21:32:00,
2013-11-18 16:37:00,71.6,70.3,29.91,West,266,0.0,3.0,96,0.06,,,0.33,46.0,meteohub,2013-11-18 21:37:00,
2013-11-18 16:42:00,71.6,70.3,29.91,West,266,0.0,2.0,96,0.05,,,0.33,44.0,meteohub,2013-11-18 21:42:00,
2013-11-18 16:47:00,71.4,70.2,29.90,West,266,0.0,2.0,96,0.05,,,0.33,40.0,meteohub,2013-11-18 21:47:00,
2013-11-18 16:52:00,71.4,70.2,29.90,West,266,1.0,2.0,96,0.04,,,0.33,32.0,meteohub,2013-11-18 21:52:00,
2013-11-18 16:57:00,71.4,70.2,29.91,West,266,0.0,2.0,96,0.04,,,0.34,26.0,meteohub,2013-11-18 21:57:00,
2013-11-18 17:02:00,71.2,70.0,29.90,West,272,0.0,3.0,96,0.04,,,0.34,23.0,meteohub,2013-11-18 22:02:00,
2013-11-18 17:08:00,71.1,69.8,29.90,South,176,0.0,3.0,96,0.04,,,0.34,16.0,meteohub,2013-11-18 22:08:00,
2013-11-18 17:14:00,71.1,69.8,29.90,West,275,0.0,3.0,96,0.04,,,0.34,7.0,meteohub,2013-11-18 22:14:00,
2013-11-18 17:21:00,70.9,69.6,29.90,WSW,238,0.0,2.0,96,0.03,,,0.35,0.0,meteohub,2013-11-18 22:21:00,
2013-11-18 17:27:00,70.9,69.6,29.89,WSW,256,0.0,2.0,96,0.03,,,0.35,0.0,meteohub,2013-11-18 22:27:00,
2013-11-18 17:32:00,70.9,70.0,29.90,West,260,1.0,2.0,97,0.03,,,0.35,0.0,meteohub,2013-11-18 22:32:00,
2013-11-18 17:37:00,70.9,70.0,29.90,West,271,2.0,2.0,97,0.03,,,0.36,0.0,meteohub,2013-11-18 22:37:00,
2013-11-18 17:42:00,70.9,70.0,29.90,West,272,2.0,3.0,97,0.03,,,0.36,0.0,meteohub,2013-11-18 22:42:00,
2013-11-18 17:47:00,70.9,70.0,29.89,West,267,1.0,3.0,97,0.03,,,0.36,0.0,meteohub,2013-11-18 22:47:00,
2013-11-18 17:52:00,70.9,70.0,29.89,West,275,1.0,3.0,97,0.02,,,0.36,0.0,meteohub,2013-11-18 22:52:00,
2013-11-18 17:57:00,70.7,69.8,29.89,WSW,246,1.0,3.0,97,0.02,,,0.36,0.0,meteohub,2013-11-18 22:57:00,
2013-11-18 18:02:00,70.7,69.8,29.89,WSW,256,0.0,3.0,97,0.02,,,0.36,0.0,meteohub,2013-11-18 23:02:00,
2013-11-18 18:07:00,70.5,69.6,29.89,WSW,256,1.0,3.0,97,0.02,,,0.36,0.0,meteohub,2013-11-18 23:07:00,
2013-11-18 18:12:00,70.3,69.4,29.89,WSW,256,1.0,3.0,97,0.02,,,0.37,0.0,meteohub,2013-11-18 23:12:00,
2013-11-18 18:17:00,70.3,69.4,29.89,WSW,256,0.0,2.0,97,0.02,,,0.37,0.0,meteohub,2013-11-18 23:17:00,
2013-11-18 18:22:00,70.3,69.4,29.89,WSW,256,0.0,2.0,97,0.02,,,0.37,0.0,meteohub,2013-11-18 23:22:00,
2013-11-18 18:27:00,70.2,69.3,29.89,WSW,256,0.0,2.0,97,0.02,,,0.37,0.0,meteohub,2013-11-18 23:27:00,
2013-11-18 18:32:00,70.2,69.3,29.89,WSW,258,1.0,2.0,97,0.02,,,0.37,0.0,meteohub,2013-11-18 23:32:00,
2013-11-18 18:37:00,70.2,69.3,29.89,West,265,0.0,2.0,97,0.02,,,0.37,0.0,meteohub,2013-11-18 23:37:00,
2013-11-18 18:44:00,70.2,69.3,29.89,West,268,0.0,3.0,97,0.01,,,0.37,0.0,meteohub,2013-11-18 23:44:00,
2013-11-18 18:50:00,70.0,69.4,29.89,West,268,1.0,3.0,98,0.01,,,0.37,0.0,meteohub,2013-11-18 23:50:00,
2013-11-18 18:57:00,70.0,69.4,29.89,WNW,298,1.0,1.0,98,0.02,,,0.38,0.0,meteohub,2013-11-18 23:57:00,
2013-11-18 19:02:00,70.0,69.4,29.89,WSW,246,0.0,1.0,98,0.02,,,0.38,0.0,meteohub,2013-11-19 00:02:00,
2013-11-18 19:07:00,69.8,69.3,29.90,WSW,255,0.0,1.0,98,0.01,,,0.38,0.0,meteohub,2013-11-19 00:07:00,
2013-11-18 19:12:00,69.6,68.7,29.90,WSW,242,0.0,3.0,97,0.01,,,0.38,0.0,meteohub,2013-11-19 00:12:00,
2013-11-18 19:18:00,69.4,68.5,29.90,WSW,242,1.0,3.0,97,0.01,,,0.00,0.0,meteohub,2013-11-19 00:18:00,
2013-11-18 19:24:00,69.4,68.9,29.90,WSW,251,0.0,2.0,98,0.01,,,0.00,0.0,meteohub,2013-11-19 00:24:00,
2013-11-18 19:30:00,69.4,68.9,29.90,WSW,251,1.0,2.0,98,0.01,,,0.00,0.0,meteohub,2013-11-19 00:30:00,
2013-11-18 19:37:00,69.3,68.7,29.90,WSW,251,0.0,2.0,98,0.01,,,0.00,0.0,meteohub,2013-11-19 00:37:00,
2013-11-18 19:42:00,69.3,68.7,29.89,WSW,251,0.0,2.0,98,0.01,,,0.00,0.0,meteohub,2013-11-19 00:42:00,
2013-11-18 19:49:00,69.4,68.9,29.89,West,262,2.0,2.0,98,0.01,,,0.00,0.0,meteohub,2013-11-19 00:49:00,
2013-11-18 19:55:00,69.4,68.9,29.90,West,260,0.0,3.0,98,0.00,,,0.00,0.0,meteohub,2013-11-19 00:55:00,
2013-11-18 20:01:00,69.3,68.7,29.90,West,264,1.0,3.0,98,0.00,,,0.00,0.0,meteohub,2013-11-19 01:01:00,
2013-11-18 20:07:00,69.3,68.7,29.89,West,263,2.0,3.0,98,0.00,,,0.00,0.0,meteohub,2013-11-19 01:07:00,
2013-11-18 20:12:00,69.3,68.7,29.89,West,265,2.0,4.0,98,0.00,,,0.00,0.0,meteohub,2013-11-19 01:12:00,
2013-11-18 20:17:00,69.1,68.5,29.89,West,265,1.0,4.0,98,0.00,,,0.00,0.0,meteohub,2013-11-19 01:17:00,
2013-11-18 20:22:00,69.1,68.5,29.89,West,265,2.0,4.0,98,0.00,,,0.00,0.0,meteohub,2013-11-19 01:22:00,
2013-11-18 20:27:00,69.1,68.5,29.90,WSW,254,2.0,4.0,98,0.00,,,0.00,0.0,meteohub,2013-11-19 01:27:00,
2013-11-18 20:32:00,69.1,68.5,29.89,West,271,2.0,3.0,98,0.00,,,0.00,0.0,meteohub,2013-11-19 01:32:00,
2013-11-18 20:39:00,69.1,68.5,29.90,West,265,2.0,3.0,98,0.01,,,0.01,0.0,meteohub,2013-11-19 01:39:00,
2013-11-18 20:45:00,69.1,68.5,29.89,West,262,3.0,3.0,98,0.01,,,0.01,0.0,meteohub,2013-11-19 01:45:00,
2013-11-18 20:51:00,69.3,68.7,29.89,West,263,1.0,4.0,98,0.01,,,0.01,0.0,meteohub,2013-11-19 01:51:00,
2013-11-18 20:57:00,69.3,68.7,29.90,West,267,1.0,4.0,98,0.01,,,0.01,0.0,meteohub,2013-11-19 01:57:00,
2013-11-18 21:03:00,69.4,68.9,29.90,WSW,246,2.0,4.0,98,0.01,,,0.01,0.0,meteohub,2013-11-19 02:03:00,
2013-11-18 21:09:00,69.6,69.1,29.90,West,259,2.0,4.0,98,0.01,,,0.01,0.0,meteohub,2013-11-19 02:09:00,
2013-11-18 21:13:00,69.6,69.1,29.90,West,265,0.0,4.0,98,0.01,,,0.01,0.0,meteohub,2013-11-19 02:13:00,
2013-11-18 21:19:00,69.6,69.1,29.90,West,259,4.0,4.0,98,0.01,,,0.01,0.0,meteohub,2013-11-19 02:19:00,
2013-11-18 21:25:00,69.6,69.1,29.90,West,272,1.0,4.0,98,0.01,,,0.01,0.0,meteohub,2013-11-19 02:25:00,
2013-11-18 21:31:00,69.6,69.1,29.90,West,263,1.0,5.0,98,0.01,,,0.01,0.0,meteohub,2013-11-19 02:31:00,
2013-11-18 21:37:00,69.6,69.1,29.90,West,267,0.0,5.0,98,0.01,,,0.01,0.0,meteohub,2013-11-19 02:37:00,
2013-11-18 21:42:00,69.6,69.1,29.90,West,271,1.0,4.0,98,0.00,,,0.01,0.0,meteohub,2013-11-19 02:42:00,
2013-11-18 21:47:00,69.6,69.1,29.90,West,264,4.0,4.0,98,0.00,,,0.01,0.0,meteohub,2013-11-19 02:47:00,
2013-11-18 21:52:00,69.6,69.1,29.91,West,265,1.0,4.0,98,0.00,,,0.01,0.0,meteohub,2013-11-19 02:52:00,
2013-11-18 21:57:00,69.4,68.9,29.91,West,278,2.0,4.0,98,0.00,,,0.01,0.0,meteohub,2013-11-19 02:57:00,
2013-11-18 22:02:00,69.4,68.9,29.91,West,266,2.0,4.0,98,0.00,,,0.01,0.0,meteohub,2013-11-19 03:02:00,
2013-11-18 22:07:00,69.3,68.7,29.91,West,268,1.0,4.0,98,0.00,,,0.01,0.0,meteohub,2013-11-19 03:07:00,
2013-11-18 22:12:00,69.3,68.7,29.91,West,268,0.0,3.0,98,0.00,,,0.01,0.0,meteohub,2013-11-19 03:12:00,
2013-11-18 22:17:00,69.3,68.7,29.91,West,268,1.0,3.0,98,0.00,,,0.01,0.0,meteohub,2013-11-19 03:17:00,
2013-11-18 22:22:00,69.3,68.7,29.91,West,268,1.0,3.0,98,0.00,,,0.01,0.0,meteohub,2013-11-19 03:22:00,
2013-11-18 22:27:00,69.3,68.7,29.91,West,261,1.0,3.0,98,0.00,,,0.01,0.0,meteohub,2013-11-19 03:27:00,
2013-11-18 22:32:00,69.3,68.7,29.91,West,273,2.0,2.0,98,0.00,,,0.01,0.0,meteohub,2013-11-19 03:32:00,
2013-11-18 22:39:00,69.3,68.7,29.91,WSW,257,1.0,2.0,98,0.00,,,0.01,0.0,meteohub,2013-11-19 03:39:00,
2013-11-18 22:45:00,69.4,68.9,29.91,WSW,255,2.0,3.0,98,0.00,,,0.01,0.0,meteohub,2013-11-19 03:45:00,
2013-11-18 22:51:00,69.4,68.9,29.91,West,276,1.0,3.0,98,0.00,,,0.01,0.0,meteohub,2013-11-19 03:51:00,
2013-11-18 22:57:00,69.4,68.9,29.92,NW,313,1.0,3.0,98,0.00,,,0.01,0.0,meteohub,2013-11-19 03:57:00,
2013-11-18 23:04:00,69.3,68.7,29.92,WNW,286,1.0,4.0,98,0.00,,,0.01,0.0,meteohub,2013-11-19 04:04:00,
2013-11-18 23:10:00,69.3,68.7,29.92,West,267,2.0,4.0,98,0.00,,,0.01,0.0,meteohub,2013-11-19 04:10:00,
2013-11-18 23:12:00,69.1,68.5,29.92,West,266,1.0,4.0,98,0.00,,,0.01,0.0,meteohub,2013-11-19 04:12:00,
2013-11-18 23:17:00,68.9,68.4,29.92,SW,227,1.0,3.0,98,0.00,,,0.01,0.0,meteohub,2013-11-19 04:17:00,
2013-11-18 23:22:00,68.7,68.2,29.93,WNW,285,1.0,3.0,98,0.00,,,0.01,0.0,meteohub,2013-11-19 04:22:00,
2013-11-18 23:27:00,68.5,67.6,29.93,ESE,116,1.0,3.0,97,0.00,,,0.01,0.0,meteohub,2013-11-19 04:27:00,
2013-11-18 23:32:00,68.2,66.7,29.93,NE,42,0.0,6.0,95,0.00,,,0.01,0.0,meteohub,2013-11-19 04:32:00,
2013-11-18 23:37:00,67.6,65.5,29.93,SSW,209,1.0,6.0,93,0.00,,,0.01,0.0,meteohub,2013-11-19 04:37:00,
2013-11-18 23:42:00,67.3,64.6,29.94,NE,44,1.0,6.0,91,0.00,,,0.01,0.0,meteohub,2013-11-19 04:42:00,
2013-11-18 23:47:00,66.6,63.5,29.94,NNE,22,0.0,6.0,90,0.00,,,0.01,0.0,meteohub,2013-11-19 04:47:00,
2013-11-18 23:52:00,65.7,60.1,29.94,NW,325,1.0,4.0,82,0.00,,,0.01,0.0,meteohub,2013-11-19 04:52:00,
2013-11-18 23:59:00,64.2,56.8,29.94,NNW,343,0.0,4.0,77,0.00,,,0.01,0.0,meteohub,2013-11-19 04:59:00,